MAPA DE AEROPUERTO

INFORMACIÓN METAR y TAF

METAR FOR LECH
ADDS - METARS form results

(1204 UTC 27 November 2021)
Data provider http://aviationweather.gov/metar/data/
 
METAR text: LECH 271130Z AUTO 32008KT 280V010 9999 FEW069 13/M01 Q1001
Conditions at: LECH (CASTELLON , ES) observed 1130 UTC 27 November 2021
Temperature: 13.0°C (55°F)
Dewpoint: -1.0°C (30°F) [RH = 38%]
Pressure (altimeter): 29.56 inches Hg (1001.0 mb)
Winds: from the NW (320 degrees) at 9 MPH (8 knots; 4.1 m/s)
Visibility: 6 or more miles (10+ km)
Ceiling: at least 12,000 feet AGL
Clouds: few clouds at 6900 feet AGL
Weather: no significant weather observed at this time